Time;durP1;ratioP1;P1;durP2;ratioP2;P2;SDS_P1;SDS_P2;PMS_P1;PMS_P2;Temp;Humidity;BMP_temperature;BMP_pressure;BME280_temperature;BME280_humidity;BME280_pressure;Samples;Min_cycle;Max_cycle;Signal;HPM_P1;HPM_P2
2023/05/14 00:00:50;;;;;;;;;;;;;;;15.73;87.68;101065.19;4902168;29;19949;-81
2023/05/14 00:03:16;;;;;;;;;;;;;;;16.03;88.25;101123.56;4923407;29;19937;-80
2023/05/14 00:05:47;;;;;;;;;;;;;;;15.99;87.81;101119.50;4937053;28;19922;-81
2023/05/14 00:08:13;;;;;;;;;;;;;;;15.96;87.00;101125.19;4908932;29;19923;-81
2023/05/14 00:10:40;;;;;;;;;;;;;;;16.01;87.39;101112.16;4928005;28;20108;-81
2023/05/14 00:13:07;;;;;;;;;;;;;;;16.00;87.32;101110.50;4917295;29;20312;-81
2023/05/14 00:15:33;;;;;;;;;;;;;;;16.00;87.76;101104.31;4938615;28;20369;-80
2023/05/14 00:18:00;;;;;;;;;;;;;;;15.97;87.56;101105.47;4933456;28;19948;-81
2023/05/14 00:20:26;;;;;;;;;;;;;;;15.96;88.01;101103.75;4944075;28;19926;-81
2023/05/14 00:22:55;;;;;;;;;;;;;;;15.94;88.08;101111.13;4919446;29;20258;-82
2023/05/14 00:25:21;;;;;;;;;;;;;;;15.95;88.54;101101.28;4925919;29;19942;-80
2023/05/14 00:27:48;;;;;;;;;;;;;;;15.93;87.87;101098.75;4924634;29;19932;-81
2023/05/14 00:30:17;;;;;;;;;;;;;;;15.92;87.16;101105.09;4923804;29;19922;-81
2023/05/14 00:32:47;;;;;;;;;;;;;;;15.91;88.10;101090.03;4923882;28;19927;-80
2023/05/14 00:35:13;;;;;;;;;;;;;;;15.92;86.69;101094.41;4928419;28;20334;-82
2023/05/14 00:37:40;;;;;;;;;;;;;;;15.92;87.56;101086.38;4929409;29;19922;-82
2023/05/14 00:40:07;;;;;;;;;;;;;;;15.92;87.16;101086.38;4917282;28;19926;-80
2023/05/14 00:42:36;;;;;;;;;;;;;;;15.60;86.89;101041.47;4928869;28;20337;-81
2023/05/14 00:45:11;;;;;;;;;;;;;;;15.85;87.16;101079.97;4909937;28;19933;-82
2023/05/14 00:47:41;;;;;;;;;;;;;;;15.81;86.95;101074.06;4933174;28;20339;-82
2023/05/14 00:50:08;;;;;;;;;;;;;;;15.82;85.96;101074.91;4942396;28;19929;-80
2023/05/14 00:52:36;;;;;;;;;;;;;;;15.85;85.61;101069.25;4931840;28;19926;-80
2023/05/14 00:55:06;;;;;;;;;;;;;;;15.82;85.85;101064.19;4923306;29;20001;-81
2023/05/14 00:57:34;;;;;;;;;;;;;;;15.80;86.28;101060.84;4935155;29;19922;-81
2023/05/14 01:00:03;;;;;;;;;;;;;;;15.84;86.14;101062.19;4930490;29;19926;-82
2023/05/14 01:02:31;;;;;;;;;;;;;;;15.86;85.80;101062.06;4936016;28;20246;-81
2023/05/14 01:04:57;;;;;;;;;;;;;;;15.83;86.30;101060.53;4949979;28;20000;-80
2023/05/14 01:07:27;;;;;;;;;;;;;;;15.76;87.14;101046.13;4938438;28;19921;-81
2023/05/14 01:09:59;;;;;;;;;;;;;;;15.79;86.70;101059.16;4936823;28;19968;-81
2023/05/14 01:12:43;;;;;;;;;;;;;;;15.75;86.30;101058.66;4936940;28;19992;-82
2023/05/14 01:15:11;;;;;;;;;;;;;;;15.64;86.80;101033.97;4937458;28;19949;-82
2023/05/14 01:17:41;;;;;;;;;;;;;;;15.75;86.22;101052.44;4949913;28;19930;-80
2023/05/14 01:20:08;;;;;;;;;;;;;;;15.65;86.51;101047.19;4941710;28;20373;-81
2023/05/14 01:22:35;;;;;;;;;;;;;;;15.72;86.79;101047.41;4928283;28;20404;-81
2023/05/14 01:25:01;;;;;;;;;;;;;;;15.70;86.94;101044.06;4922460;28;19926;-81
2023/05/14 01:27:38;;;;;;;;;;;;;;;15.63;88.16;101046.50;4930569;28;19922;-80
2023/05/14 01:30:24;;;;;;;;;;;;;;;15.62;88.36;101041.31;4931687;28;19922;-81
2023/05/14 01:32:53;;;;;;;;;;;;;;;15.64;87.20;101034.81;4946992;28;20275;-82
2023/05/14 01:35:23;;;;;;;;;;;;;;;15.63;87.25;101030.44;4949711;28;19933;-80
2023/05/14 01:37:59;;;;;;;;;;;;;;;15.62;87.70;101025.25;4957473;28;19926;-79
2023/05/14 01:40:27;;;;;;;;;;;;;;;15.59;87.10;101027.25;4950998;28;19922;-82
2023/05/14 01:42:55;;;;;;;;;;;;;;;15.59;87.17;101019.22;4947903;28;20583;-78
2023/05/14 01:45:22;;;;;;;;;;;;;;;15.58;86.70;101014.88;4948065;28;19925;-81
2023/05/14 01:47:49;;;;;;;;;;;;;;;15.52;87.33;101009.31;4934323;28;19949;-82
2023/05/14 01:50:17;;;;;;;;;;;;;;;15.50;87.41;101001.44;4946286;28;20034;-82
2023/05/14 01:52:50;;;;;;;;;;;;;;;15.39;87.14;100997.22;4934238;28;19922;-81
2023/05/14 01:55:17;;;;;;;;;;;;;;;15.47;86.06;100995.59;4927012;28;19922;-82
2023/05/14 01:57:46;;;;;;;;;;;;;;;15.38;86.28;100992.84;4944041;28;19937;-81
2023/05/14 02:00:16;;;;;;;;;;;;;;;15.40;86.68;100990.00;4929437;28;20029;-83
2023/05/14 02:02:42;;;;;;;;;;;;;;;15.33;86.97;100988.97;4929960;28;19932;-81
2023/05/14 02:05:09;;;;;;;;;;;;;;;15.32;87.49;100987.31;4937717;29;19922;-82
2023/05/14 02:07:36;;;;;;;;;;;;;;;15.30;86.75;100989.28;4940419;29;20021;-81
2023/05/14 02:10:03;;;;;;;;;;;;;;;15.37;86.03;100987.66;4921354;28;19923;-82
2023/05/14 02:12:32;;;;;;;;;;;;;;;15.29;86.00;100987.59;4935909;28;20361;-81
2023/05/14 02:14:59;;;;;;;;;;;;;;;15.35;86.04;100993.16;4919713;28;20436;-81
2023/05/14 02:17:25;;;;;;;;;;;;;;;14.96;86.17;100934.75;4918988;28;19934;-81
2023/05/14 02:19:52;;;;;;;;;;;;;;;15.29;86.42;101009.00;4925700;28;19934;-81
2023/05/14 02:22:19;;;;;;;;;;;;;;;15.22;86.87;101002.59;4904799;29;19926;-81
2023/05/14 02:24:46;;;;;;;;;;;;;;;15.15;87.13;101005.09;4923863;29;19932;-80
2023/05/14 02:27:12;;;;;;;;;;;;;;;15.23;86.51;101005.13;4921270;28;20356;-81
2023/05/14 02:29:39;;;;;;;;;;;;;;;15.20;86.05;100999.25;4931386;28;19923;-81
2023/05/14 02:32:06;;;;;;;;;;;;;;;15.12;85.62;101000.88;4923184;29;20325;-83
2023/05/14 02:34:33;;;;;;;;;;;;;;;15.10;85.05;100984.16;4912003;28;19922;-81
2023/05/14 02:37:00;;;;;;;;;;;;;;;15.24;83.77;100984.56;4930223;29;20106;-81
2023/05/14 02:39:33;;;;;;;;;;;;;;;15.12;83.97;100982.16;4942778;28;20336;-78
2023/05/14 02:42:00;;;;;;;;;;;;;;;15.13;84.60;100983.84;4943511;28;20188;-82
2023/05/14 02:44:30;;;;;;;;;;;;;;;15.06;85.42;100977.44;4932176;28;19997;-82
2023/05/14 02:46:57;;;;;;;;;;;;;;;15.20;84.54;100991.25;4940741;28;19926;-82
2023/05/14 02:49:24;;;;;;;;;;;;;;;15.07;85.26;100986.28;4930321;28;19934;-82
2023/05/14 02:51:55;;;;;;;;;;;;;;;15.02;86.09;100991.25;4907032;29;19926;-82
2023/05/14 02:54:24;;;;;;;;;;;;;;;14.70;85.22;100929.38;4897804;29;19923;-81
2023/05/14 02:56:55;;;;;;;;;;;;;;;15.03;85.64;100972.41;4878043;29;20103;-80
2023/05/14 02:59:23;;;;;;;;;;;;;;;14.99;85.86;100960.34;4883780;29;19929;-79
2023/05/14 03:01:50;;;;;;;;;;;;;;;14.97;86.31;100956.97;4900881;29;20712;-83
2023/05/14 03:04:17;;;;;;;;;;;;;;;14.92;86.30;100953.94;4929652;28;19922;-81
2023/05/14 03:06:47;;;;;;;;;;;;;;;14.89;86.22;100949.75;4914166;28;20370;-82
2023/05/14 03:09:13;;;;;;;;;;;;;;;14.93;86.16;100955.63;4911577;29;20171;-80
2023/05/14 03:11:40;;;;;;;;;;;;;;;14.98;85.67;100939.97;4887146;29;19932;-82
2023/05/14 03:14:07;;;;;;;;;;;;;;;14.86;86.96;100954.56;4905730;28;19932;-81
2023/05/14 03:16:33;;;;;;;;;;;;;;;14.89;86.65;100944.41;4908756;29;20554;-80
2023/05/14 03:19:00;;;;;;;;;;;;;;;14.83;87.21;100942.38;4893687;29;19922;-81
2023/05/14 03:21:27;;;;;;;;;;;;;;;14.87;87.03;100948.22;4905007;29;19926;-81
2023/05/14 03:23:53;;;;;;;;;;;;;;;14.93;86.35;100950.28;4910236;29;20294;-82
2023/05/14 03:26:20;;;;;;;;;;;;;;;14.89;86.48;100951.59;4906665;29;19922;-82
2023/05/14 03:28:47;;;;;;;;;;;;;;;14.86;86.67;100950.06;4896778;29;19926;-83
2023/05/14 03:31:14;;;;;;;;;;;;;;;14.62;85.97;100902.63;4914323;29;19926;-82
2023/05/14 03:33:41;;;;;;;;;;;;;;;14.91;86.19;100953.09;4931314;28;20029;-82
2023/05/14 03:36:10;;;;;;;;;;;;;;;14.92;85.38;100954.75;4943782;28;19933;-83
2023/05/14 03:38:37;;;;;;;;;;;;;;;14.81;86.39;100956.88;4943788;28;19969;-83
2023/05/14 03:41:04;;;;;;;;;;;;;;;14.78;86.64;100962.50;4944203;28;20353;-82
2023/05/14 03:43:30;;;;;;;;;;;;;;;14.69;87.76;100958.94;4942429;28;20340;-83
2023/05/14 03:45:57;;;;;;;;;;;;;;;14.66;87.81;100965.44;4939998;28;20440;-82
2023/05/14 03:48:24;;;;;;;;;;;;;;;14.63;87.95;100960.38;4939006;28;20284;-82
2023/05/14 03:50:51;;;;;;;;;;;;;;;14.59;88.85;100964.38;4943580;28;20403;-84
2023/05/14 03:53:17;;;;;;;;;;;;;;;14.59;89.95;100969.72;4938351;28;20024;-83
2023/05/14 03:55:44;;;;;;;;;;;;;;;14.59;89.45;100969.72;4931989;28;19949;-84
2023/05/14 03:58:13;;;;;;;;;;;;;;;14.61;90.06;100973.09;4925994;28;20107;-82
2023/05/14 04:00:40;;;;;;;;;;;;;;;14.65;90.13;100981.63;4941000;28;20663;-84
2023/05/14 04:03:07;;;;;;;;;;;;;;;14.66;89.65;100973.47;4939910;28;20333;-83
2023/05/14 04:05:34;;;;;;;;;;;;;;;14.67;89.27;100983.13;4931926;28;19961;-83
2023/05/14 04:08:01;;;;;;;;;;;;;;;14.69;88.16;100974.97;4924349;28;20185;-81
2023/05/14 04:10:28;;;;;;;;;;;;;;;14.73;89.61;100971.84;4927561;28;20399;-84
2023/05/14 04:12:58;;;;;;;;;;;;;;;14.67;89.41;100960.94;4937875;28;19926;-83
2023/05/14 04:15:32;;;;;;;;;;;;;;;14.33;90.52;100903.69;4918727;28;20012;-84
2023/05/14 04:18:21;;;;;;;;;;;;;;;14.69;88.80;100941.06;4923397;28;19968;-81
2023/05/14 04:20:48;;;;;;;;;;;;;;;14.64;89.61;100948.72;4927284;28;19925;-82
2023/05/14 04:23:15;;;;;;;;;;;;;;;14.63;90.01;100964.91;4901089;28;20158;-80
2023/05/14 04:25:41;;;;;;;;;;;;;;;14.60;91.02;100959.88;4914022;28;20347;-82
2023/05/14 04:28:08;;;;;;;;;;;;;;;14.56;89.97;100948.63;4932039;28;19926;-83
2023/05/14 04:30:34;;;;;;;;;;;;;;;14.62;90.37;100950.69;4940864;28;19929;-82
2023/05/14 04:33:01;;;;;;;;;;;;;;;14.74;88.43;100941.44;4926960;28;20105;-81
2023/05/14 04:35:28;;;;;;;;;;;;;;;14.71;88.41;100941.75;4945211;28;19929;-82
2023/05/14 04:37:54;;;;;;;;;;;;;;;14.68;88.85;100939.38;4948577;28;19926;-83
2023/05/14 04:40:29;;;;;;;;;;;;;;;14.63;89.25;100939.00;4939909;28;20342;-82
2023/05/14 04:42:59;;;;;;;;;;;;;;;14.62;90.22;100945.38;4947971;28;20342;-82
2023/05/14 04:45:26;;;;;;;;;;;;;;;14.60;90.47;100951.84;4943928;28;20136;-83
2023/05/14 04:47:53;;;;;;;;;;;;;;;14.61;90.04;100951.72;4922778;28;20384;-81
2023/05/14 04:50:20;;;;;;;;;;;;;;;14.63;89.71;100955.03;4950974;28;20013;-82
2023/05/14 04:52:47;;;;;;;;;;;;;;;14.58;89.45;100962.69;4933202;28;19997;-81
2023/05/14 04:55:13;;;;;;;;;;;;;;;14.56;90.45;100962.00;4952345;28;19922;-80
2023/05/14 04:57:40;;;;;;;;;;;;;;;14.61;89.69;100967.75;4918649;28;19932;-81
2023/05/14 05:00:08;;;;;;;;;;;;;;;14.63;89.44;100960.38;4943750;28;19926;-82
2023/05/14 05:02:37;;;;;;;;;;;;;;;14.59;90.29;100964.38;4936976;28;20383;-81
2023/05/14 05:05:06;;;;;;;;;;;;;;;14.56;90.63;100963.84;4948124;28;19923;-83
2023/05/14 05:07:32;;;;;;;;;;;;;;;14.55;90.41;100957.66;4924386;28;19926;-81
2023/05/14 05:09:59;;;;;;;;;;;;;;;14.63;89.20;100964.91;4948572;28;19934;-80
2023/05/14 05:12:29;;;;;;;;;;;;;;;14.54;90.37;100961.34;4928887;29;19923;-80
2023/05/14 05:14:56;;;;;;;;;;;;;;;14.61;90.19;100958.88;4944332;28;19922;-81
2023/05/14 05:17:23;;;;;;;;;;;;;;;14.59;89.86;100964.38;4950039;28;20423;-83
2023/05/14 05:19:50;;;;;;;;;;;;;;;14.56;89.67;100959.31;4936525;28;20484;-83
2023/05/14 05:22:18;;;;;;;;;;;;;;;14.52;89.23;100961.44;4929295;29;20448;-81
2023/05/14 05:24:45;;;;;;;;;;;;;;;14.48;90.15;100968.06;4950248;28;19950;-80
2023/05/14 05:27:15;;;;;;;;;;;;;;;14.45;90.54;100962.22;4952511;28;19969;-82
2023/05/14 05:29:42;;;;;;;;;;;;;;;14.48;90.59;100973.41;4927729;29;19926;-81
2023/05/14 05:32:09;;;;;;;;;;;;;;;14.45;91.35;100970.22;4955461;28;20341;-82
2023/05/14 05:34:36;;;;;;;;;;;;;;;14.45;90.46;100975.56;4950627;28;20637;-81
2023/05/14 05:37:05;;;;;;;;;;;;;;;14.50;90.46;100971.44;4932558;28;19927;-84
2023/05/14 05:39:33;;;;;;;;;;;;;;;14.54;89.45;100966.69;4931776;29;19977;-81
2023/05/14 05:42:04;;;;;;;;;;;;;;;14.58;88.64;100964.53;4931776;29;20232;-83
2023/05/14 05:44:30;;;;;;;;;;;;;;;14.57;88.20;100965.53;4934027;29;19930;-81
2023/05/14 05:46:57;;;;;;;;;;;;;;;14.59;87.62;100964.38;4936091;28;19950;-83
2023/05/14 05:49:24;;;;;;;;;;;;;;;14.49;88.78;100968.91;4953703;28;19929;-83
2023/05/14 05:51:50;;;;;;;;;;;;;;;14.42;88.89;100970.53;4944554;28;19945;-83
2023/05/14 05:54:24;;;;;;;;;;;;;;;14.34;90.68;100971.28;4949605;28;19962;-81
2023/05/14 05:56:50;;;;;;;;;;;;;;;14.37;90.39;100975.47;4950608;28;20010;-81
2023/05/14 05:59:17;;;;;;;;;;;;;;;14.40;90.43;100975.19;4947162;28;19926;-81
2023/05/14 06:01:44;;;;;;;;;;;;;;;14.42;90.11;100981.22;4953832;28;19989;-82
2023/05/14 06:04:10;;;;;;;;;;;;;;;14.39;90.40;100976.16;4945922;28;20372;-82
2023/05/14 06:06:37;;;;;;;;;;;;;;;14.33;90.39;100973.13;4956720;28;20584;-81
2023/05/14 06:09:05;;;;;;;;;;;;;;;14.32;90.60;100974.13;4948929;28;20256;-82
2023/05/14 06:11:32;;;;;;;;;;;;;;;14.35;91.21;100972.13;4944569;28;20017;-82
2023/05/14 06:13:59;;;;;;;;;;;;;;;14.36;91.37;100973.81;4950126;28;19926;-82
2023/05/14 06:16:26;;;;;;;;;;;;;;;14.37;91.14;100967.47;4946962;28;19953;-83
2023/05/14 06:18:54;;;;;;;;;;;;;;;14.41;90.38;100966.16;4936337;28;19933;-82
2023/05/14 06:21:20;;;;;;;;;;;;;;;14.47;90.58;100960.22;4947464;28;19930;-82
2023/05/14 06:23:47;;;;;;;;;;;;;;;14.50;90.89;100951.91;4943902;28;19954;-82
2023/05/14 06:26:15;;;;;;;;;;;;;;;14.47;90.59;100944.22;4952434;28;19926;-83
2023/05/14 06:28:43;;;;;;;;;;;;;;;14.46;90.26;100946.00;4942341;28;19926;-82
2023/05/14 06:31:10;;;;;;;;;;;;;;;14.46;91.18;100948.69;4954020;28;19922;-81
2023/05/14 06:33:39;;;;;;;;;;;;;;;14.47;91.47;100949.53;4947343;28;19977;-82
2023/05/14 06:36:08;;;;;;;;;;;;;;;14.51;91.05;100945.56;4954309;28;19922;-81
2023/05/14 06:38:35;;;;;;;;;;;;;;;14.60;89.44;100944.66;4937265;28;20168;-83
2023/05/14 06:41:02;;;;;;;;;;;;;;;14.57;90.84;100939.66;4947145;28;20003;-83
2023/05/14 06:43:28;;;;;;;;;;;;;;;14.57;89.89;100945.00;4938257;28;19988;-81
2023/05/14 06:45:55;;;;;;;;;;;;;;;14.61;89.26;100940.16;4953939;28;19994;-82
2023/05/14 06:48:22;;;;;;;;;;;;;;;14.68;88.83;100942.06;4952287;28;19988;-80
2023/05/14 06:50:49;;;;;;;;;;;;;;;14.67;89.86;100939.56;4949048;28;19933;-81
2023/05/14 06:53:17;;;;;;;;;;;;;;;14.67;89.00;100940.38;4954706;28;19922;-82
2023/05/14 06:55:45;;;;;;;;;;;;;;;14.71;88.62;100940.94;4951945;28;19996;-81
2023/05/14 06:58:12;;;;;;;;;;;;;;;14.84;88.26;100943.19;4931815;28;19926;-82
2023/05/14 07:00:39;;;;;;;;;;;;;;;14.89;86.76;100946.22;4944601;28;20135;-82
2023/05/14 07:03:05;;;;;;;;;;;;;;;14.80;88.49;100944.50;4958028;28;19926;-81
2023/05/14 07:05:34;;;;;;;;;;;;;;;14.79;88.65;100945.50;4949976;28;19926;-80
2023/05/14 07:08:01;;;;;;;;;;;;;;;14.81;89.56;100941.69;4962421;28;20147;-82
2023/05/14 07:10:27;;;;;;;;;;;;;;;14.81;88.83;100943.50;4944597;28;20061;-80
2023/05/14 07:12:54;;;;;;;;;;;;;;;14.90;88.67;100946.09;4931961;28;19965;-81
2023/05/14 07:15:21;;;;;;;;;;;;;;;14.89;87.45;100938.22;4943492;28;19933;-80
2023/05/14 07:17:50;;;;;;;;;;;;;;;14.93;87.27;100920.88;4944648;28;19922;-81
2023/05/14 07:20:19;;;;;;;;;;;;;;;14.89;87.23;100922.19;4947024;28;19929;-80
2023/05/14 07:22:46;;;;;;;;;;;;;;;14.87;87.38;100921.50;4944923;28;19969;-80
2023/05/14 07:25:12;;;;;;;;;;;;;;;14.91;87.02;100914.84;4949345;28;20276;-81
2023/05/14 07:27:39;;;;;;;;;;;;;;;14.86;87.34;100917.16;4951136;28;19926;-80
2023/05/14 07:30:07;;;;;;;;;;;;;;;14.81;87.76;100909.59;4936891;28;20237;-80
2023/05/14 07:32:33;;;;;;;;;;;;;;;14.84;87.64;100913.78;4917010;28;19926;-81
2023/05/14 07:35:00;;;;;;;;;;;;;;;14.87;87.22;100918.81;4937053;28;20347;-80
2023/05/14 07:37:27;;;;;;;;;;;;;;;14.82;88.00;100915.78;4922343;28;20270;-81
2023/05/14 07:39:54;;;;;;;;;;;;;;;14.92;87.87;100916.50;4914890;29;20005;-82
2023/05/14 07:42:21;;;;;;;;;;;;;;;14.89;87.43;100914.16;4914784;28;20060;-81
2023/05/14 07:45:01;;;;;;;;;;;;;;;14.91;87.40;100917.53;4949284;28;20109;-83
2023/05/14 07:47:31;;;;;;;;;;;;;;;14.33;87.92;100820.06;4934715;28;19930;-83
2023/05/14 07:49:58;;;;;;;;;;;;;;;14.93;89.54;100918.22;4954998;28;19933;-83
2023/05/14 07:52:28;;;;;;;;;;;;;;;14.93;89.56;100916.38;4960397;28;19937;-80
2023/05/14 07:54:55;;;;;;;;;;;;;;;14.92;89.30;100912.00;4949846;28;19925;-81
2023/05/14 07:57:22;;;;;;;;;;;;;;;15.08;88.57;100910.44;4950611;28;19966;-81
2023/05/14 07:59:49;;;;;;;;;;;;;;;15.06;88.47;100901.72;4941259;28;19922;-82
2023/05/14 08:02:23;;;;;;;;;;;;;;;15.08;88.33;100905.94;4950346;28;19926;-83
2023/05/14 08:04:52;;;;;;;;;;;;;;;15.12;88.28;100901.94;4934069;28;19944;-85
2023/05/14 08:07:20;;;;;;;;;;;;;;;15.13;88.53;100897.44;4956055;28;19922;-84
2023/05/14 08:09:48;;;;;;;;;;;;;;;15.11;90.21;100905.59;4944881;28;20007;-83
2023/05/14 08:12:15;;;;;;;;;;;;;;;15.11;89.23;100900.25;4956289;28;19925;-84
2023/05/14 08:14:42;;;;;;;;;;;;;;;15.12;90.20;100901.09;4932329;28;20450;-83
2023/05/14 08:17:12;;;;;;;;;;;;;;;15.16;89.48;100897.94;4951905;28;20020;-84
2023/05/14 08:19:42;;;;;;;;;;;;;;;15.20;88.71;100900.31;4949257;28;20104;-83
2023/05/14 08:22:09;;;;;;;;;;;;;;;15.18;89.24;100895.94;4962861;28;20055;-86
2023/05/14 08:24:35;;;;;;;;;;;;;;;15.22;89.80;100893.81;4959593;28;19926;-84
2023/05/14 08:27:02;;;;;;;;;;;;;;;15.31;88.45;100892.00;4944979;28;19926;-85
2023/05/14 08:29:29;;;;;;;;;;;;;;;15.34;87.45;100889.00;4959952;28;20204;-85
2023/05/14 08:31:56;;;;;;;;;;;;;;;15.39;87.47;100892.03;4953369;28;19926;-82
2023/05/14 08:34:23;;;;;;;;;;;;;;;15.42;87.98;100893.56;4952573;28;19922;-83
2023/05/14 08:36:50;;;;;;;;;;;;;;;15.50;87.74;100886.38;4943950;28;19922;-84
2023/05/14 08:39:16;;;;;;;;;;;;;;;15.50;88.69;100891.75;4919114;28;19926;-82
2023/05/14 08:41:44;;;;;;;;;;;;;;;15.58;87.62;100878.41;4947633;28;19984;-81
2023/05/14 08:44:10;;;;;;;;;;;;;;;15.58;88.65;100881.09;4934506;28;19926;-82
2023/05/14 08:46:38;;;;;;;;;;;;;;;15.41;88.15;100833.84;4940740;28;19930;-85
2023/05/14 08:49:16;;;;;;;;;;;;;;;15.77;89.27;100881.81;4924946;28;20253;-81
2023/05/14 08:51:47;;;;;;;;;;;;;;;15.96;88.77;100870.81;4952497;28;19937;-83
2023/05/14 08:54:17;;;;;;;;;;;;;;;15.96;89.07;100878.84;4942184;28;19973;-81
2023/05/14 08:56:45;;;;;;;;;;;;;;;16.09;85.17;100872.16;4954436;28;19949;-80
2023/05/14 08:59:12;;;;;;;;;;;;;;;16.10;84.60;100869.34;4923202;28;19926;-81
2023/05/14 09:05:37;;;;;;;;;;;;;;;16.21;84.08;100870.84;4948668;28;20037;-81
2023/05/14 09:08:03;;;;;;;;;;;;;;;16.19;84.03;100863.00;4949798;28;20114;-81
2023/05/14 09:10:31;;;;;;;;;;;;;;;16.22;82.20;100862.66;4954662;28;19929;-81
2023/05/14 09:13:01;;;;;;;;;;;;;;;16.25;81.67;100856.13;4948641;28;19949;-80
2023/05/14 09:15:28;;;;;;;;;;;;;;;16.41;80.37;100861.47;4953651;28;20078;-81
2023/05/14 09:17:55;;;;;;;;;;;;;;;16.45;78.21;100862.78;4946167;28;20388;-81
2023/05/14 09:20:23;;;;;;;;;;;;;;;16.48;76.58;100861.66;4947151;28;20151;-81
2023/05/14 09:22:53;;;;;;;;;;;;;;;16.42;77.77;100863.13;4955259;28;20283;-83
2023/05/14 09:25:32;;;;;;;;;;;;;;;16.43;78.68;100855.94;4932560;28;19922;-82
2023/05/14 09:28:07;;;;;;;;;;;;;;;16.46;75.70;100850.25;4951544;28;20070;-82
2023/05/14 09:30:35;;;;;;;;;;;;;;;16.58;74.08;100851.59;4942059;28;19981;-83
2023/05/14 09:33:03;;;;;;;;;;;;;;;16.59;75.18;100847.06;4948045;28;19922;-83
2023/05/14 09:35:33;;;;;;;;;;;;;;;16.65;74.93;100851.72;4939591;28;20402;-82
2023/05/14 09:38:00;;;;;;;;;;;;;;;16.69;74.77;100847.69;4939396;28;19930;-82
2023/05/14 09:40:26;;;;;;;;;;;;;;;16.73;74.29;100854.41;4944269;28;20026;-83
2023/05/14 09:42:55;;;;;;;;;;;;;;;16.69;76.12;100850.38;4945276;28;19926;-81
2023/05/14 09:45:23;;;;;;;;;;;;;;;16.73;77.40;100859.75;4929665;28;20427;-81
2023/05/14 09:47:56;;;;;;;;;;;;;;;16.70;79.51;100844.03;4918191;28;19922;-82
2023/05/14 09:50:25;;;;;;;;;;;;;;;16.76;77.42;100848.69;4920818;29;20248;-81
2023/05/14 09:52:54;;;;;;;;;;;;;;;16.77;76.82;100849.53;4902179;28;20858;-80
2023/05/14 09:55:23;;;;;;;;;;;;;;;16.69;78.16;100850.38;4906566;29;20593;-81
2023/05/14 09:57:50;;;;;;;;;;;;;;;16.77;76.92;100849.53;4925365;28;20343;-82
2023/05/14 10:00:18;;;;;;;;;;;;;;;16.76;76.28;100837.13;4933415;28;20344;-78
2023/05/14 10:02:45;;;;;;;;;;;;;;;16.55;77.12;100841.19;4922346;28;20480;-78
2023/05/14 10:05:12;;;;;;;;;;;;;;;16.49;77.28;100835.69;4916238;28;19926;-82
2023/05/14 10:07:48;;;;;;;;;;;;;;;16.11;77.82;100781.78;4938423;28;19964;-80
2023/05/14 10:10:17;;;;;;;;;;;;;;;16.27;79.39;100827.31;4956932;28;19930;-79
2023/05/14 10:12:49;;;;;;;;;;;;;;;16.30;78.15;100837.69;4946787;28;20007;-82
2023/05/14 10:15:19;;;;;;;;;;;;;;;16.27;79.09;100832.69;4924323;28;19922;-80
2023/05/14 10:17:48;;;;;;;;;;;;;;;16.12;81.44;100835.19;4930629;28;20340;-81
2023/05/14 10:20:19;;;;;;;;;;;;;;;16.15;80.49;100836.69;4948869;28;19922;-80
2023/05/14 10:22:46;;;;;;;;;;;;;;;16.02;81.66;100830.00;4899828;28;19926;-80
2023/05/14 10:25:13;;;;;;;;;;;;;;;16.02;81.90;100835.34;4918136;28;19990;-82
2023/05/14 10:27:43;;;;;;;;;;;;;;;15.95;81.87;100834.34;4917660;28;19922;-81
2023/05/14 10:30:13;;;;;;;;;;;;;;;15.89;82.23;100839.53;4912258;28;20387;-80
2023/05/14 10:32:40;;;;;;;;;;;;;;;15.79;82.02;100828.97;4927111;28;19930;-80
2023/05/14 10:35:19;;;;;;;;;;;;;;;15.80;81.89;100833.31;4935488;28;20119;-81
2023/05/14 10:37:46;;;;;;;;;;;;;;;15.76;81.24;100829.31;4936005;28;19929;-80
2023/05/14 10:40:13;;;;;;;;;;;;;;;15.56;83.13;100840.25;4904972;28;19930;-79
2023/05/14 10:42:42;;;;;;;;;;;;;;;15.56;82.84;100839.44;4938525;28;19929;-80
2023/05/14 10:45:10;;;;;;;;;;;;;;;15.58;82.94;100846.28;4950599;28;20340;-80
2023/05/14 10:47:44;;;;;;;;;;;;;;;15.47;83.00;100840.41;4932294;28;19922;-81
2023/05/14 10:50:13;;;;;;;;;;;;;;;15.47;83.08;100843.06;4923187;28;20428;-81
2023/05/14 10:52:51;;;;;;;;;;;;;;;15.40;83.71;100840.22;4907292;29;20308;-83
2023/05/14 10:55:18;;;;;;;;;;;;;;;15.39;84.53;100844.72;4897134;29;19930;-82
2023/05/14 10:57:45;;;;;;;;;;;;;;;15.34;85.49;100841.69;4884586;29;20380;-82
2023/05/14 11:00:15;;;;;;;;;;;;;;;15.31;86.54;100838.50;4900860;29;19970;-80
2023/05/14 11:02:43;;;;;;;;;;;;;;;15.32;86.74;100841.03;4906015;29;19933;-79
2023/05/14 11:05:16;;;;;;;;;;;;;;;15.32;86.76;100842.88;4899706;29;19922;-79
2023/05/14 11:07:46;;;;;;;;;;;;;;;15.44;83.93;100851.41;4902878;29;20463;-81
2023/05/14 11:10:15;;;;;;;;;;;;;;;15.10;85.24;100796.97;4895304;29;20468;-79
2023/05/14 11:12:43;;;;;;;;;;;;;;;15.43;84.68;100844.41;4920212;28;19922;-81
2023/05/14 11:15:15;;;;;;;;;;;;;;;15.40;84.49;100840.22;4923267;28;19922;-81
2023/05/14 11:17:43;;;;;;;;;;;;;;;15.47;84.15;100846.59;4948731;28;20289;-79
2023/05/14 11:20:10;;;;;;;;;;;;;;;15.52;84.05;100844.25;4918029;28;19922;-81
2023/05/14 11:22:38;;;;;;;;;;;;;;;15.54;83.98;100842.25;4915606;28;20387;-80
2023/05/14 11:25:06;;;;;;;;;;;;;;;15.41;85.37;100836.53;4927196;28;19921;-77
2023/05/14 11:27:34;;;;;;;;;;;;;;;15.53;85.43;100834.38;4901141;28;19922;-79
2023/05/14 11:30:01;;;;;;;;;;;;;;;15.54;85.82;100828.88;4929767;28;19926;-79
2023/05/14 11:32:27;;;;;;;;;;;;;;;15.68;85.12;100829.22;4939097;28;19929;-77
2023/05/14 11:34:54;;;;;;;;;;;;;;;15.69;83.75;100825.56;4947733;28;20172;-80
2023/05/14 11:37:21;;;;;;;;;;;;;;;15.73;83.05;100824.28;4913347;28;19933;-78
2023/05/14 11:39:56;;;;;;;;;;;;;;;15.73;82.45;100825.13;4944930;28;19922;-80
2023/05/14 11:42:24;;;;;;;;;;;;;;;15.66;83.46;100829.41;4915903;28;19922;-79
2023/05/14 11:44:52;;;;;;;;;;;;;;;15.65;84.50;100824.22;4932619;28;20321;-79
2023/05/14 11:47:20;;;;;;;;;;;;;;;15.83;82.54;100822.28;4936033;28;19922;-78
2023/05/14 11:49:49;;;;;;;;;;;;;;;15.76;83.09;100824.78;4926226;28;20396;-80
2023/05/14 11:52:20;;;;;;;;;;;;;;;15.77;84.26;100821.09;4947562;28;19922;-79
2023/05/14 11:54:49;;;;;;;;;;;;;;;15.79;86.06;100818.25;4945895;28;20346;-79
2023/05/14 11:57:20;;;;;;;;;;;;;;;15.78;84.48;100812.06;4938956;28;20016;-78
2023/05/14 11:59:48;;;;;;;;;;;;;;;15.86;83.16;100813.09;4949612;28;19952;-78
2023/05/14 12:02:22;;;;;;;;;;;;;;;15.96;82.08;100814.59;4936298;28;19930;-78
2023/05/14 12:04:51;;;;;;;;;;;;;;;15.97;82.20;100804.72;4935006;28;19937;-81
2023/05/14 12:07:17;;;;;;;;;;;;;;;15.95;81.19;100804.06;4934431;29;20349;-79
2023/05/14 12:09:48;;;;;;;;;;;;;;;15.98;81.69;100804.56;4933010;28;19969;-78
2023/05/14 12:12:19;;;;;;;;;;;;;;;15.94;80.83;100805.06;4937851;28;19922;-79
2023/05/14 12:14:46;;;;;;;;;;;;;;;15.96;80.95;100809.22;4924281;28;20388;-79
2023/05/14 12:17:13;;;;;;;;;;;;;;;15.97;81.11;100808.25;4914328;28;19922;-80
2023/05/14 12:19:43;;;;;;;;;;;;;;;15.93;80.58;100798.88;4917544;28;20615;-82
2023/05/14 12:22:12;;;;;;;;;;;;;;;15.92;81.02;100805.22;4936255;28;20001;-81
2023/05/14 12:24:42;;;;;;;;;;;;;;;15.82;81.57;100807.22;4925924;29;19938;-81
2023/05/14 12:27:09;;;;;;;;;;;;;;;15.78;82.74;100813.91;4932928;29;19922;-81
2023/05/14 12:29:37;;;;;;;;;;;;;;;15.76;82.03;100805.22;4926601;29;19922;-81
2023/05/14 12:32:08;;;;;;;;;;;;;;;15.74;81.91;100807.22;4926725;29;19922;-84
2023/05/14 12:34:35;;;;;;;;;;;;;;;15.61;84.88;100807.66;4913874;28;19953;-84
2023/05/14 12:37:03;;;;;;;;;;;;;;;15.55;84.17;100809.13;4931850;29;20368;-82
2023/05/14 12:39:32;;;;;;;;;;;;;;;15.51;84.86;100805.13;4936167;28;20448;-84
2023/05/14 12:41:58;;;;;;;;;;;;;;;15.54;85.20;100809.31;4919454;28;20281;-85
2023/05/14 12:44:25;;;;;;;;;;;;;;;15.53;85.48;100812.97;4951489;28;20037;-82